Time;durP1;ratioP1;P1;durP2;ratioP2;P2;SDS_P1;SDS_P2;PMS_P1;PMS_P2;Temp;Humidity;BMP_temperature;BMP_pressure;BME280_temperature;BME280_humidity;BME280_pressure;Samples;Min_cycle;Max_cycle;Signal;HPM_P1;HPM_P2
2022/08/09 00:01:48;;;;;;;15.58;4.90;;;;;;;20.20;44.21;101635.05;1721634;81;98874;-70
2022/08/09 00:04:17;;;;;;;14.33;4.37;;;;;;;20.20;44.29;101641.85;1725475;81;26571;-70
2022/08/09 00:06:45;;;;;;;14.75;4.17;;;;;;;20.19;44.38;101634.66;1721451;81;98862;-69
2022/08/09 00:09:11;;;;;;;16.02;4.55;;;;;;;20.18;44.49;101640.21;1722931;81;25752;-68
2022/08/09 00:11:38;;;;;;;13.55;4.55;;;;;;;20.17;44.59;101639.34;1728199;81;27383;-71
2022/08/09 00:14:04;;;;;;;13.22;5.08;;;;;;;20.16;44.68;101640.31;1698145;82;98929;-68
2022/08/09 00:16:30;;;;;;;7.47;3.95;;;;;;;20.16;44.77;101644.39;1717953;82;26504;-70
2022/08/09 00:18:56;;;;;;;13.70;4.17;;;;;;;20.14;44.79;101640.91;1701274;82;98695;-70
2022/08/09 00:21:23;;;;;;;8.78;4.10;;;;;;;20.11;44.91;101645.19;1717345;81;25774;-69
2022/08/09 00:23:50;;;;;;;15.90;4.75;;;;;;;20.09;45.02;101641.70;1728273;81;98871;-70
2022/08/09 00:26:17;;;;;;;7.20;3.50;;;;;;;20.07;45.12;101642.30;1722390;81;51919;-69
2022/08/09 00:28:43;;;;;;;17.30;3.98;;;;;;;20.06;45.22;101641.42;1730478;81;25967;-72
2022/08/09 00:31:09;;;;;;;14.87;4.15;;;;;;;20.06;45.26;101641.42;1719773;81;98861;-69
2022/08/09 00:33:35;;;;;;;9.38;3.77;;;;;;;20.06;45.31;101640.06;1721585;81;26462;-69
2022/08/09 00:36:03;;;;;;;12.33;4.85;;;;;;;20.07;45.45;101639.58;1723286;81;98958;-69
2022/08/09 00:38:28;;;;;;;14.30;4.47;;;;;;;20.08;45.50;101639.95;1726637;81;25768;-70
2022/08/09 00:40:54;;;;;;;8.50;3.70;;;;;;;20.07;45.57;101633.64;1726788;81;25790;-69
2022/08/09 00:43:21;;;;;;;12.13;3.62;;;;;;;20.07;45.63;101643.16;1703317;82;98646;-69
2022/08/09 00:45:48;;;;;;;16.73;4.22;;;;;;;20.07;45.67;101644.53;1683178;83;25712;-69
2022/08/09 00:48:14;;;;;;;16.67;4.17;;;;;;;20.06;45.78;101640.55;1717483;81;99070;-70
2022/08/09 00:50:41;;;;;;;12.58;4.17;;;;;;;20.06;45.83;101644.14;1720958;81;25702;-69
2022/08/09 00:53:09;;;;;;;19.17;3.77;;;;;;;20.04;45.87;101638.41;1716979;81;25844;-69
2022/08/09 00:55:35;;;;;;;8.45;4.00;;;;;;;20.04;45.93;101647.94;1716996;81;98846;-70
2022/08/09 00:58:01;;;;;;;11.85;4.03;;;;;;;20.03;45.98;101642.98;1702757;82;25844;-70
2022/08/09 01:00:27;;;;;;;13.15;3.80;;;;;;;20.01;46.05;101653.59;1686401;83;99056;-69
2022/08/09 01:03:01;;;;;;;14.58;4.33;;;;;;;20.00;46.13;101651.84;1674495;83;27141;-69
2022/08/09 01:05:50;;;;;;;13.13;4.72;;;;;;;19.99;46.19;101650.09;1723049;81;26423;-69
2022/08/09 01:08:25;;;;;;;11.33;4.10;;;;;;;19.98;46.18;101651.08;1710117;82;98784;-69
2022/08/09 01:11:22;;;;;;;8.93;4.28;;;;;;;19.94;46.26;101655.84;1724435;81;25895;-68
2022/08/09 01:14:03;;;;;;;12.33;4.50;;;;;;;19.91;46.32;101657.41;1715662;81;99346;-69
2022/08/09 01:16:40;;;;;;;14.97;4.27;;;;;;;19.86;46.46;101656.84;1715083;81;25762;-69
2022/08/09 01:19:45;;;;;;;14.18;4.20;;;;;;;19.85;46.58;101661.02;1727575;81;98918;-69
2022/08/09 01:22:40;;;;;;;9.88;3.72;;;;;;;19.83;46.68;101654.81;1722185;81;26490;-69
2022/08/09 01:25:28;;;;;;;12.88;3.70;;;;;;;19.79;46.79;101658.22;1720521;81;98998;-70
2022/08/09 01:27:56;;;;;;;11.18;3.55;;;;;;;19.76;46.87;101660.66;1699275;82;27413;-70
2022/08/09 01:30:24;;;;;;;13.30;4.10;;;;;;;19.70;46.94;101658.34;1687741;82;99030;-70
2022/08/09 01:32:53;;;;;;;13.88;3.85;;;;;;;19.68;47.07;101663.49;1713783;81;26317;-69
2022/08/09 01:35:31;;;;;;;14.55;3.83;;;;;;;19.70;47.19;101658.83;1724517;81;27156;-69
2022/08/09 01:38:02;;;;;;;7.62;4.25;;;;;;;19.68;47.23;101660.77;1716016;81;98914;-69
2022/08/09 01:40:29;;;;;;;11.22;3.98;;;;;;;19.67;47.40;101658.53;1725890;81;27422;-69
2022/08/09 01:42:57;;;;;;;11.95;3.70;;;;;;;19.66;47.43;101663.59;1720396;81;98903;-68
2022/08/09 01:45:25;;;;;;;19.48;4.08;;;;;;;19.65;47.56;101663.20;1723341;81;25788;-71
2022/08/09 01:47:53;;;;;;;13.80;4.37;;;;;;;19.65;47.63;101659.12;1730621;80;27164;-68
2022/08/09 01:50:22;;;;;;;12.68;4.30;;;;;;;19.66;47.73;101658.15;1740932;80;98748;-69
2022/08/09 01:52:50;;;;;;;14.25;4.05;;;;;;;19.67;47.77;101662.62;1753954;80;28207;-69
2022/08/09 01:55:17;;;;;;;8.63;4.08;;;;;;;19.67;47.84;101654.95;1742203;80;98900;-69
2022/08/09 01:57:48;;;;;;;10.25;3.60;;;;;;;19.68;47.93;101658.92;1742073;80;25736;-69
2022/08/09 02:00:14;;;;;;;10.07;4.20;;;;;;;19.68;47.99;101658.92;1747384;80;99036;-68
2022/08/09 02:02:49;;;;;;;9.98;4.20;;;;;;;19.69;48.09;101655.72;1730101;81;25907;-69
2022/08/09 02:05:18;;;;;;;9.75;3.92;;;;;;;19.68;48.11;101652.61;1751702;80;27507;-69
2022/08/09 02:08:05;;;;;;;6.33;3.80;;;;;;;19.69;48.17;101648.92;1741797;80;98733;-69
2022/08/09 02:10:41;;;;;;;17.12;5.08;;;;;;;19.67;48.21;101655.81;1735299;80;25754;-69
2022/08/09 02:13:11;;;;;;;15.15;4.20;;;;;;;19.66;48.26;101651.35;1740101;80;98895;-69
2022/08/09 02:15:42;;;;;;;13.85;3.83;;;;;;;19.67;48.31;101654.45;1744016;80;26362;-69
2022/08/09 02:18:09;;;;;;;17.10;4.50;;;;;;;19.66;48.33;101654.07;1748132;80;99037;-69
2022/08/09 02:20:41;;;;;;;9.40;4.10;;;;;;;19.65;48.36;101655.05;1740106;80;25910;-69
2022/08/09 02:23:39;;;;;;;17.62;4.47;;;;;;;19.67;48.40;101657.66;1741431;80;26265;-69
2022/08/09 02:26:07;;;;;;;12.88;4.00;;;;;;;19.65;48.43;101659.12;1745665;80;98858;-70
2022/08/09 02:28:44;;;;;;;18.55;4.00;;;;;;;19.65;48.46;101656.89;1749245;80;25695;-69
2022/08/09 02:31:18;;;;;;;13.65;4.45;;;;;;;19.64;48.51;101649.22;1738404;80;98967;-69
2022/08/09 02:33:46;;;;;;;13.85;3.62;;;;;;;19.64;48.54;101653.30;1746574;80;26418;-69
2022/08/09 02:36:20;;;;;;;12.13;4.05;;;;;;;19.65;48.58;101656.41;1740410;80;99040;-68
2022/08/09 02:38:53;;;;;;;14.07;4.20;;;;;;;19.65;48.60;101655.05;1744232;80;25870;-71
2022/08/09 02:41:28;;;;;;;7.47;3.83;;;;;;;19.65;48.68;101660.97;1740671;80;26262;-69
2022/08/09 02:43:59;;;;;;;13.53;4.80;;;;;;;19.63;48.74;101665.64;1746237;80;98754;-69
2022/08/09 02:46:28;;;;;;;12.53;4.12;;;;;;;19.60;48.90;101663.98;1740121;80;25803;-71
2022/08/09 02:48:58;;;;;;;10.82;4.22;;;;;;;19.57;49.02;101664.19;1733675;80;99120;-68
2022/08/09 02:51:27;;;;;;;12.15;4.40;;;;;;;19.56;49.12;101667.88;1724044;81;26124;-69
2022/08/09 02:53:57;;;;;;;8.63;3.85;;;;;;;19.55;49.25;101664.77;1727947;81;25740;-69
2022/08/09 02:56:26;;;;;;;10.40;3.90;;;;;;;19.55;49.34;101666.13;1691370;82;98639;-69
2022/08/09 02:58:53;;;;;;;18.73;4.40;;;;;;;19.54;49.46;101665.75;1681009;84;27226;-69
2022/08/09 03:01:20;;;;;;;10.03;3.85;;;;;;;19.54;49.62;101667.59;1665072;84;99197;-69
2022/08/09 03:03:48;;;;;;;11.75;4.22;;;;;;;19.52;49.75;101669.05;1672607;83;25819;-69
2022/08/09 03:06:16;;;;;;;11.45;5.10;;;;;;;19.52;49.84;101670.90;1671283;84;98976;-68
2022/08/09 03:08:44;;;;;;;17.15;4.58;;;;;;;19.51;49.94;101670.47;1651204;84;27464;-68
2022/08/09 03:11:14;;;;;;;14.60;4.37;;;;;;;19.48;50.08;101670.19;1699764;83;25781;-69
2022/08/09 03:13:43;;;;;;;13.97;5.10;;;;;;;19.45;50.20;101671.74;1658572;84;98920;-69
2022/08/09 03:16:10;;;;;;;13.70;4.62;;;;;;;19.44;50.33;101679.52;1660858;84;26357;-68
2022/08/09 03:18:36;;;;;;;14.13;4.10;;;;;;;19.44;50.42;101675.44;1694492;83;99346;-71
2022/08/09 03:21:04;;;;;;;12.13;4.30;;;;;;;19.42;50.48;101678.25;1693698;83;27333;-68
2022/08/09 03:23:30;;;;;;;20.45;4.42;;;;;;;19.41;50.60;101679.70;1684341;84;26001;-70
2022/08/09 03:25:58;;;;;;;10.25;3.80;;;;;;;19.39;50.66;101677.58;1674401;84;98970;-71
2022/08/09 03:28:26;;;;;;;11.03;4.12;;;;;;;19.36;50.74;101678.64;1675973;84;25877;-69
2022/08/09 03:30:54;;;;;;;26.37;4.87;;;;;;;19.35;50.82;101675.53;1681019;84;98917;-68
2022/08/09 03:33:22;;;;;;;14.83;4.62;;;;;;;19.33;50.92;101677.48;1674511;84;27410;-69
2022/08/09 03:35:51;;;;;;;15.63;4.50;;;;;;;19.32;50.97;101678.45;1682792;84;25844;-69
2022/08/09 03:38:17;;;;;;;13.62;4.40;;;;;;;19.30;51.02;101674.08;1664880;83;98733;-68
2022/08/09 03:40:43;;;;;;;12.00;4.78;;;;;;;19.28;51.13;101682.82;1660878;85;26070;-69
2022/08/09 03:43:09;;;;;;;15.35;4.62;;;;;;;19.29;51.21;101681.84;1686838;82;98896;-69
2022/08/09 03:45:35;;;;;;;13.35;4.17;;;;;;;19.28;51.19;101677.37;1692509;82;28155;-69
2022/08/09 03:48:02;;;;;;;12.50;4.00;;;;;;;19.24;51.23;101679.91;1696532;82;98975;-68
2022/08/09 03:50:30;;;;;;;9.48;4.53;;;;;;;19.20;51.31;101681.94;1681048;84;25802;-68
2022/08/09 03:53:01;;;;;;;9.53;4.70;;;;;;;19.19;51.38;101677.96;1680374;84;26460;-69
2022/08/09 03:55:27;;;;;;;13.40;4.45;;;;;;;19.19;51.49;101677.48;1684166;84;98745;-69
2022/08/09 03:57:55;;;;;;;8.93;4.20;;;;;;;19.21;51.53;101677.37;1682480;84;27459;-69
2022/08/09 04:00:22;;;;;;;11.30;4.30;;;;;;;19.20;51.59;101676.50;1677782;83;98959;-69
2022/08/09 04:02:48;;;;;;;21.77;4.87;;;;;;;19.22;51.64;101682.72;1672982;83;25850;-69
2022/08/09 04:05:14;;;;;;;11.40;5.28;;;;;;;19.23;51.67;101680.39;1672931;84;25793;-69
2022/08/09 04:07:40;;;;;;;18.35;4.70;;;;;;;19.25;51.73;101683.02;1677366;84;98919;-69
2022/08/09 04:10:07;;;;;;;7.28;4.30;;;;;;;19.25;51.80;101684.37;1673862;83;27392;-70
2022/08/09 04:12:47;;;;;;;10.93;4.42;;;;;;;19.25;51.85;101683.88;1679871;84;99052;-69
2022/08/09 04:15:15;;;;;;;13.97;4.77;;;;;;;19.25;51.87;101679.81;1681102;84;25779;-69
2022/08/09 04:17:43;;;;;;;11.45;4.72;;;;;;;19.27;51.98;101685.15;1661441;84;26434;-69
2022/08/09 04:20:11;;;;;;;17.00;4.00;;;;;;;19.28;51.98;101689.12;1677493;83;98834;-69
2022/08/09 04:22:38;;;;;;;9.85;4.12;;;;;;;19.29;52.01;101688.64;1685818;83;28061;-69
2022/08/09 04:25:06;;;;;;;11.65;4.17;;;;;;;19.32;52.08;101689.81;1684980;83;98523;-70
2022/08/09 04:27:32;;;;;;;14.05;4.47;;;;;;;19.34;52.09;101690.09;1679824;84;26753;-68
2022/08/09 04:29:58;;;;;;;15.70;4.25;;;;;;;19.33;52.13;101693.79;1675497;84;25843;-68
2022/08/09 04:32:27;;;;;;;14.73;4.83;;;;;;;19.35;52.21;101690.97;1682734;84;97899;-71
2022/08/09 04:34:53;;;;;;;15.95;4.47;;;;;;;19.35;52.25;101694.56;1683667;83;27388;-71
2022/08/09 04:37:19;;;;;;;14.85;4.75;;;;;;;19.36;52.31;101696.31;1674589;83;98814;-71
2022/08/09 04:39:45;;;;;;;11.75;4.80;;;;;;;19.36;52.32;101698.16;1684515;84;25776;-71
2022/08/09 04:42:11;;;;;;;11.00;4.83;;;;;;;19.37;52.35;101699.91;1687726;83;99126;-71
2022/08/09 04:44:38;;;;;;;17.80;4.28;;;;;;;19.39;52.43;101706.12;1679982;84;25923;-69
2022/08/09 04:47:04;;;;;;;11.75;4.35;;;;;;;19.40;52.43;101698.35;1689527;83;27419;-69
2022/08/09 04:49:36;;;;;;;16.25;4.47;;;;;;;19.42;52.46;101703.20;1682619;81;99167;-69
2022/08/09 04:52:00;;;;;;;16.12;4.97;;;;;;;19.46;52.52;101706.12;1748158;80;26071;-68
2022/08/09 04:54:26;;;;;;;11.88;3.98;;;;;;;19.48;52.52;101708.26;1729464;80;98957;-71
2022/08/09 04:56:52;;;;;;;16.55;5.20;;;;;;;19.49;52.55;101705.92;1740372;80;25848;-69
2022/08/09 04:59:18;;;;;;;14.10;4.83;;;;;;;19.51;52.58;101712.14;1745962;80;27462;-69
2022/08/09 05:01:44;;;;;;;15.03;4.62;;;;;;;19.53;52.59;101710.72;1749207;80;98823;-69
2022/08/09 05:04:10;;;;;;;13.25;5.10;;;;;;;19.56;52.63;101712.75;1753648;80;25802;-69
2022/08/09 05:06:35;;;;;;;10.78;4.17;;;;;;;19.60;52.62;101703.91;1740472;80;99111;-69
2022/08/09 05:09:01;;;;;;;12.88;4.70;;;;;;;19.64;52.60;101715.86;1741113;80;25772;-69
2022/08/09 05:11:28;;;;;;;16.90;5.03;;;;;;;19.69;52.57;101719.16;1742534;80;29574;-70
2022/08/09 05:13:54;;;;;;;12.73;4.58;;;;;;;19.67;52.57;101708.86;1750563;80;98817;-70
2022/08/09 05:16:21;;;;;;;9.85;4.65;;;;;;;19.68;52.57;101712.45;1737716;80;25691;-69
2022/08/09 05:18:47;;;;;;;15.88;5.30;;;;;;;19.68;52.54;101720.12;1714849;81;98594;-70
2022/08/09 05:21:13;;;;;;;14.85;4.97;;;;;;;19.70;52.60;101720.03;1739445;80;26488;-69
2022/08/09 05:23:39;;;;;;;11.50;5.15;;;;;;;19.75;52.59;101713.80;1752067;80;27463;-70
2022/08/09 05:26:05;;;;;;;15.35;4.65;;;;;;;19.76;52.56;101718.27;1740577;80;98751;-69
2022/08/09 05:28:31;;;;;;;28.57;4.87;;;;;;;19.74;52.53;101721.09;1744633;80;25269;-69
2022/08/09 05:30:57;;;;;;;19.75;4.85;;;;;;;19.75;52.61;101721.97;1735441;80;98851;-69
2022/08/09 05:33:23;;;;;;;18.90;4.30;;;;;;;19.79;52.63;101727.59;1745029;80;25715;-70
2022/08/09 05:35:48;;;;;;;19.95;4.53;;;;;;;19.81;52.65;101726.14;1741218;80;29520;-70
2022/08/09 05:38:14;;;;;;;13.43;5.12;;;;;;;19.84;52.69;101729.53;1747734;80;98814;-69
2022/08/09 05:40:40;;;;;;;20.45;4.85;;;;;;;19.87;52.63;101724.38;1747176;80;25769;-69
2022/08/09 05:43:06;;;;;;;22.07;5.58;;;;;;;19.90;52.61;101733.70;1735855;80;98782;-69
2022/08/09 05:45:32;;;;;;;16.25;4.95;;;;;;;19.92;52.62;101726.31;1745294;80;25797;-69
2022/08/09 05:47:58;;;;;;;22.10;6.03;;;;;;;19.97;52.56;101729.61;1742740;80;28677;-69
2022/08/09 05:50:24;;;;;;;17.42;5.60;;;;;;;20.02;52.52;101731.05;1717394;80;98714;-69
2022/08/09 05:52:51;;;;;;;18.42;5.65;;;;;;;20.05;52.47;101732.70;1714279;81;26381;-70
2022/08/09 05:55:18;;;;;;;25.55;5.70;;;;;;;20.07;52.39;101729.39;1720877;81;99360;-70
2022/08/09 05:57:44;;;;;;;22.50;5.80;;;;;;;20.06;52.34;101728.52;1722203;81;25688;-65
2022/08/09 06:00:12;;;;;;;14.30;4.60;;;;;;;20.04;52.30;101731.83;1721305;81;99017;-64
2022/08/09 06:02:39;;;;;;;14.55;4.83;;;;;;;20.07;52.34;101728.03;1720100;81;25750;-65
2022/08/09 06:05:07;;;;;;;15.38;4.55;;;;;;;20.10;52.31;101730.55;1723622;81;28172;-65
2022/08/09 06:07:34;;;;;;;15.80;5.28;;;;;;;20.18;52.31;101732.28;1718372;81;99025;-65
2022/08/09 06:10:01;;;;;;;17.57;5.28;;;;;;;20.25;52.25;101734.98;1717513;81;25795;-64
2022/08/09 06:12:27;;;;;;;17.90;5.55;;;;;;;20.29;52.22;101737.88;1715967;81;99129;-65
2022/08/09 06:14:52;;;;;;;14.58;5.37;;;;;;;20.31;52.17;101738.66;1717440;81;25804;-65
2022/08/09 06:17:18;;;;;;;22.73;6.83;;;;;;;20.34;52.12;101733.00;1719652;81;25806;-65
2022/08/09 06:19:44;;;;;;;30.37;6.22;;;;;;;20.37;52.15;101735.52;1720553;81;98919;-65
2022/08/09 06:22:10;;;;;;;34.63;6.17;;;;;;;20.36;52.10;101735.14;1716835;81;25682;-65
2022/08/09 06:24:36;;;;;;;30.43;5.67;;;;;;;20.33;52.14;101738.55;1714914;81;99014;-65
2022/08/09 06:27:02;;;;;;;28.60;5.70;;;;;;;20.31;52.13;101738.66;1712866;81;26363;-64
2022/08/09 06:29:28;;;;;;;26.57;5.92;;;;;;;20.32;52.19;101745.84;1702909;82;25740;-65
2022/08/09 06:31:54;;;;;;;23.25;5.55;;;;;;;20.34;52.16;101743.89;1684840;83;98894;-65
2022/08/09 06:34:20;;;;;;;25.25;6.60;;;;;;;20.35;52.21;101748.37;1685969;83;25909;-66
2022/08/09 06:36:49;;;;;;;18.98;5.45;;;;;;;20.38;52.13;101744.11;1700247;82;98892;-65
2022/08/09 06:39:15;;;;;;;20.97;5.42;;;;;;;20.40;52.12;101748.09;1719038;81;25863;-65
2022/08/09 06:41:41;;;;;;;16.12;6.30;;;;;;;20.40;52.08;101746.24;1722604;81;26347;-65
2022/08/09 06:44:07;;;;;;;33.20;7.70;;;;;;;20.46;52.04;101750.89;1719184;81;99556;-66
2022/08/09 06:46:33;;;;;;;26.62;7.83;;;;;;;20.49;51.96;101756.13;1718131;81;26245;-65
2022/08/09 06:48:59;;;;;;;16.52;6.15;;;;;;;20.50;51.89;101752.44;1717553;81;98741;-65
2022/08/09 06:51:25;;;;;;;21.50;7.08;;;;;;;20.53;51.91;101759.03;1719770;81;25936;-66
2022/08/09 06:53:50;;;;;;;32.78;7.28;;;;;;;20.57;51.87;101759.22;1718140;81;25326;-64
2022/08/09 06:56:16;;;;;;;24.40;7.12;;;;;;;20.61;51.80;101761.63;1707693;81;98584;-64
2022/08/09 06:58:42;;;;;;;30.37;8.18;;;;;;;20.61;51.70;101760.75;1722902;81;25867;-64
2022/08/09 07:01:08;;;;;;;22.55;7.62;;;;;;;20.59;51.69;101761.34;1703556;81;98815;-64
2022/08/09 07:03:34;;;;;;;36.38;8.55;;;;;;;20.56;51.66;101762.92;1717040;81;25980;-64
2022/08/09 07:06:01;;;;;;;32.20;8.15;;;;;;;20.52;51.61;101769.55;1715783;81;98912;-67
2022/08/09 07:08:29;;;;;;;28.90;7.17;;;;;;;20.50;51.64;101768.28;1681456;82;25854;-64
2022/08/09 07:10:55;;;;;;;29.20;6.53;;;;;;;20.49;51.66;101769.75;1685506;82;25858;-63
2022/08/09 07:13:21;;;;;;;29.63;6.90;;;;;;;20.50;51.65;101778.31;1703114;81;99277;-64
2022/08/09 07:15:47;;;;;;;30.90;6.92;;;;;;;20.53;51.61;101778.98;1719709;81;25886;-64
2022/08/09 07:18:13;;;;;;;19.37;6.10;;;;;;;20.56;51.67;101784.70;1711758;81;99349;-64
2022/08/09 07:20:39;;;;;;;29.48;6.58;;;;;;;20.57;51.63;101780.52;1719728;81;26568;-64
2022/08/09 07:23:04;;;;;;;31.20;8.13;;;;;;;20.61;51.64;101777.09;1715273;81;26474;-64
2022/08/09 07:25:31;;;;;;;24.32;7.80;;;;;;;20.64;51.66;101779.62;1708958;81;99179;-64
2022/08/09 07:27:56;;;;;;;25.75;6.28;;;;;;;20.67;51.64;101783.50;1716936;81;26258;-64
2022/08/09 07:30:22;;;;;;;29.15;6.53;;;;;;;20.71;51.57;101787.27;1710061;81;99064;-64
2022/08/09 07:32:48;;;;;;;29.40;6.47;;;;;;;20.75;51.54;101790.66;1704668;82;25874;-64
2022/08/09 07:35:14;;;;;;;25.92;7.72;;;;;;;20.79;51.49;101789.48;1696635;82;25937;-64
2022/08/09 07:37:43;;;;;;;31.05;7.83;;;;;;;20.81;51.44;101794.79;1684842;83;98766;-64
2022/08/09 07:40:11;;;;;;;24.95;7.60;;;;;;;20.91;51.73;101794.06;1666477;84;25782;-64
2022/08/09 07:42:57;;;;;;;31.05;8.50;;;;;;;20.91;51.73;101794.06;1670917;84;99048;-66
2022/08/09 07:45:26;;;;;;;32.45;8.73;;;;;;;21.00;51.43;101792.55;1675410;84;26566;-65
2022/08/09 07:47:54;;;;;;;33.18;8.63;;;;;;;21.06;51.42;101798.45;1678318;84;26662;-64
2022/08/09 07:50:22;;;;;;;30.55;8.08;;;;;;;21.13;51.31;101799.40;1673674;84;98717;-64
2022/08/09 07:52:48;;;;;;;28.27;7.90;;;;;;;21.17;51.31;101800.93;1659119;84;25894;-65
2022/08/09 07:55:15;;;;;;;30.90;8.30;;;;;;;21.28;51.37;101798.36;1695396;82;99418;-64
2022/08/09 07:57:41;;;;;;;26.87;7.62;;;;;;;21.37;51.26;101794.99;1682901;84;26003;-64
2022/08/09 08:00:08;;;;;;;19.30;6.55;;;;;;;21.50;51.31;101793.14;1666324;83;99304;-64
2022/08/09 08:02:34;;;;;;;17.20;6.58;;;;;;;21.66;51.19;101795.66;1681483;84;27428;-64
2022/08/09 08:05:00;;;;;;;23.12;7.22;;;;;;;21.81;51.30;101792.31;1700598;82;25953;-64
2022/08/09 08:07:26;;;;;;;27.93;7.05;;;;;;;21.95;50.96;101786.72;1671175;84;98833;-66
2022/08/09 08:09:52;;;;;;;23.22;7.25;;;;;;;22.08;50.83;101788.09;1678145;84;26086;-65
2022/08/09 08:12:18;;;;;;;37.48;7.47;;;;;;;22.19;50.75;101795.01;1663702;84;98920;-64
2022/08/09 08:14:44;;;;;;;24.63;5.97;;;;;;;22.35;50.58;101792.39;1681484;84;28056;-64
2022/08/09 08:17:10;;;;;;;15.25;6.22;;;;;;;22.44;50.44;101796.30;1684896;84;25863;-64
2022/08/09 08:19:36;;;;;;;17.20;6.25;;;;;;;22.59;50.28;101798.37;1693671;82;99641;-64
2022/08/09 08:22:03;;;;;;;24.23;8.15;;;;;;;22.62;49.93;101793.54;1675305;84;26085;-64
2022/08/09 08:24:29;;;;;;;27.60;6.45;;;;;;;22.64;49.83;101795.66;1669508;84;99124;-64
2022/08/09 08:26:56;;;;;;;20.45;6.17;;;;;;;22.71;49.69;101797.44;1675173;84;27433;-64
2022/08/09 08:29:24;;;;;;;20.27;6.60;;;;;;;22.85;49.59;101795.92;1677989;84;25830;-64
2022/08/09 08:31:50;;;;;;;18.52;5.65;;;;;;;23.02;49.37;101803.32;1675892;84;98858;-63
2022/08/09 08:34:16;;;;;;;23.47;5.55;;;;;;;23.18;49.06;101793.80;1675795;84;26720;-63
2022/08/09 08:36:42;;;;;;;18.07;5.10;;;;;;;23.23;48.71;101794.81;1672689;84;99022;-63
2022/08/09 08:39:10;;;;;;;13.75;4.62;;;;;;;23.31;48.54;101797.82;1674752;84;27474;-63
2022/08/09 08:41:37;;;;;;;16.48;4.80;;;;;;;23.38;48.37;101796.34;1678127;84;25708;-63
2022/08/09 08:44:03;;;;;;;22.77;4.12;;;;;;;23.45;48.04;101803.05;1664385;84;98857;-63
2022/08/09 08:46:34;;;;;;;18.17;3.20;;;;;;;23.48;47.70;101804.17;1669556;84;27002;-63
2022/08/09 08:49:00;;;;;;;17.77;3.05;;;;;;;23.42;47.08;101804.66;1652580;85;98906;-63
2022/08/09 08:51:26;;;;;;;16.87;2.75;;;;;;;23.32;46.55;101799.56;1674895;84;27460;-63
2022/08/09 08:53:53;;;;;;;9.95;3.08;;;;;;;23.23;46.00;101797.55;1670884;83;26258;-65
2022/08/09 08:56:19;;;;;;;9.68;2.75;;;;;;;23.25;45.67;101794.20;1639788;85;98508;-63
2022/08/09 08:58:46;;;;;;;17.20;4.00;;;;;;;23.23;45.33;101796.18;1635354;85;26667;-63
2022/08/09 09:01:17;;;;;;;26.52;3.42;;;;;;;23.20;45.18;101799.16;1641887;84;98976;-63
2022/08/09 09:03:44;;;;;;;14.63;2.92;;;;;;;23.18;45.10;101795.67;1667217;84;28236;-63
2022/08/09 09:06:12;;;;;;;10.85;3.05;;;;;;;23.26;44.99;101796.81;1662470;84;99164;-63
2022/08/09 09:08:40;;;;;;;19.70;2.37;;;;;;;23.26;44.80;101795.94;1646016;84;26452;-63
2022/08/09 09:11:07;;;;;;;10.00;2.50;;;;;;;23.29;44.73;101794.33;1638036;85;26805;-63
2022/08/09 09:13:39;;;;;;;20.48;3.20;;;;;;;23.31;44.56;101796.45;1661051;84;98981;-64
2022/08/09 09:16:08;;;;;;;23.77;3.27;;;;;;;23.36;44.40;101798.83;1674338;84;28109;-65
2022/08/09 09:18:33;;;;;;;18.42;3.00;;;;;;;23.40;44.33;101795.73;1669756;84;99372;-64
2022/08/09 09:20:59;;;;;;;24.10;4.28;;;;;;;23.48;43.99;101801.93;1666793;84;25888;-63
2022/08/09 09:23:44;;;;;;;24.35;3.50;;;;;;;23.52;43.98;101803.43;1635825;85;26370;-64
2022/08/09 09:26:12;;;;;;;9.73;2.92;;;;;;;23.58;43.86;101802.97;1685068;83;98853;-65
2022/08/09 09:28:46;;;;;;;8.95;2.65;;;;;;;23.64;43.58;101797.88;1688999;83;27522;-64
2022/08/09 09:31:15;;;;;;;9.00;2.25;;;;;;;23.66;43.44;101796.39;1677991;83;98550;-64
2022/08/09 09:33:42;;;;;;;10.30;3.05;;;;;;;23.68;42.99;101800.38;1635877;85;25802;-64
2022/08/09 09:36:11;;;;;;;9.43;2.52;;;;;;;23.82;43.00;101802.87;1636812;85;99101;-64
2022/08/09 09:38:49;;;;;;;12.20;3.00;;;;;;;23.92;42.54;101796.53;1635247;85;26713;-65
2022/08/09 09:41:29;;;;;;;22.30;2.85;;;;;;;24.01;42.45;101805.86;1634512;85;28087;-66
2022/08/09 09:43:58;;;;;;;11.18;2.92;;;;;;;24.17;42.36;101792.65;1656106;84;98902;-65
2022/08/09 09:46:29;;;;;;;6.83;2.37;;;;;;;24.37;42.19;101799.75;1671988;84;25748;-64
2022/08/09 09:48:58;;;;;;;11.30;2.00;;;;;;;24.57;42.06;101797.09;1670075;83;98757;-64
2022/08/09 09:51:28;;;;;;;7.37;2.12;;;;;;;24.73;41.74;101798.53;1679576;82;25745;-63
2022/08/09 09:54:16;;;;;;;11.40;1.98;;;;;;;24.83;41.37;101798.12;1688944;82;28673;-62
2022/08/09 09:56:46;;;;;;;11.20;2.42;;;;;;;24.90;41.11;101797.47;1699770;81;98588;-63
2022/08/09 09:59:15;;;;;;;12.63;2.63;;;;;;;25.06;40.89;101783.84;1686703;82;26581;-65
2022/08/09 10:01:44;;;;;;;8.03;1.75;;;;;;;25.26;40.55;101784.35;1684546;82;98993;-66
2022/08/09 10:04:16;;;;;;;10.38;2.25;;;;;;;25.38;40.14;101786.02;1663096;84;25761;-63
2022/08/09 10:06:45;;;;;;;13.70;2.10;;;;;;;25.38;39.77;101776.92;1666718;82;99009;-63
2022/08/09 10:09:14;;;;;;;34.35;2.83;;;;;;;25.35;39.55;101773.94;1708388;81;25741;-65
2022/08/09 10:11:40;;;;;;;10.88;2.27;;;;;;;25.34;39.36;101778.20;1708414;81;25558;-65
2022/08/09 10:14:27;;;;;;;9.48;2.30;;;;;;;25.36;39.16;101774.81;1678894;82;98993;-62
2022/08/09 10:16:54;;;;;;;10.60;2.58;;;;;;;25.36;39.04;101777.05;1663731;84;26109;-64
2022/08/09 10:19:20;;;;;;;8.78;2.25;;;;;;;25.27;38.61;101773.75;1662822;84;98917;-63
2022/08/09 10:21:49;;;;;;;7.78;1.85;;;;;;;25.22;38.48;101773.28;1655592;84;26411;-63
2022/08/09 10:24:18;;;;;;;8.93;1.65;;;;;;;25.20;38.45;101767.05;1660366;84;25801;-62
2022/08/09 10:26:46;;;;;;;13.80;2.10;;;;;;;25.20;38.12;101772.04;1682782;83;98595;-63
2022/08/09 10:29:12;;;;;;;6.22;2.02;;;;;;;25.18;37.94;101764.44;1707358;81;25701;-64
2022/08/09 10:31:39;;;;;;;4.37;1.95;;;;;;;25.17;37.77;101772.30;1701200;81;98729;-65
2022/08/09 10:34:07;;;;;;;9.58;2.02;;;;;;;25.10;37.53;101769.73;1722628;81;26225;-64
2022/08/09 10:36:34;;;;;;;9.63;1.77;;;;;;;25.08;37.50;101766.75;1699731;82;98907;-64
2022/08/09 10:39:01;;;;;;;6.50;1.70;;;;;;;25.14;37.40;101770.33;1725842;81;26679;-64
2022/08/09 10:41:27;;;;;;;9.53;1.82;;;;;;;25.12;36.96;101760.86;1705484;81;25921;-63
2022/08/09 10:43:52;;;;;;;6.90;1.98;;;;;;;25.03;36.97;101760.29;1711646;81;98670;-64
2022/08/09 10:46:41;;;;;;;12.73;2.45;;;;;;;25.05;36.74;101760.16;1711081;81;25678;-63
2022/08/09 10:49:44;;;;;;;7.70;2.15;;;;;;;25.05;36.54;101758.28;1715185;81;98913;-63
2022/08/09 10:52:32;;;;;;;7.00;2.40;;;;;;;25.03;36.60;101759.42;1726952;80;26082;-63
2022/08/09 10:55:20;;;;;;;4.83;2.12;;;;;;;25.18;36.58;101753.47;1740618;80;98878;-63
2022/08/09 10:57:46;;;;;;;8.05;1.80;;;;;;;25.31;36.41;101749.64;1743999;80;27597;-63
2022/08/09 11:00:36;;;;;;;5.28;2.02;;;;;;;25.43;36.13;101749.44;1739191;80;26334;-63
2022/08/09 11:03:03;;;;;;;4.23;2.17;;;;;;;25.53;36.01;101745.37;1727254;80;98894;-64
2022/08/09 11:05:29;;;;;;;14.07;2.25;;;;;;;25.68;35.89;101741.28;1724139;81;26051;-64
2022/08/09 11:07:56;;;;;;;14.35;2.35;;;;;;;25.78;35.77;101738.58;1734828;80;98093;-63
2022/08/09 11:10:46;;;;;;;11.30;2.22;;;;;;;25.96;35.78;101742.41;1717465;80;27965;-63
2022/08/09 11:13:18;;;;;;;5.50;2.40;;;;;;;26.11;35.51;101737.36;1724120;80;99045;-63
2022/08/09 11:15:44;;;;;;;5.72;2.15;;;;;;;26.33;35.43;101740.41;1741768;80;25295;-63
2022/08/09 11:18:14;;;;;;;12.35;2.17;;;;;;;26.59;35.26;101732.48;1744259;80;25947;-63
2022/08/09 11:20:46;;;;;;;28.67;4.67;;;;;;;26.83;35.18;101730.16;1717038;81;100514;-63
2022/08/09 11:23:13;;;;;;;7.12;2.02;;;;;;;27.08;35.08;101734.23;1745914;80;28630;-63
2022/08/09 11:25:44;;;;;;;8.50;2.47;;;;;;;27.19;34.64;101731.82;1737135;80;98668;-63
2022/08/09 11:28:35;;;;;;;9.50;2.58;;;;;;;27.10;34.44;101722.56;1728410;81;26021;-63